Main page
METAR-TAF:

METAR-TAF

Airports :

N'Djamena, Chad

N'Djamena International Airport

latitude: 12-08N, longitude: 015-02E, elevation: 295 m

Current weather observation

The report was made 1 hour and 8 minutes ago, at 18:00 UTC
Wind 3 kt from the North
Temperature 24°C
Humidity 13%
Pressure 1011 hPa
Visibility: 8000 m

METAR: FTTJ 191800Z 36003KT 8000 NSC 24/M06 Q1011 NOSIG

Time: 20:08 (19:08 UTC)

Forecast

The report was made 2 hours and 7 minutes ago, at 17:01 UTC
Forecast valid from 19 at 18 UTC to 20 at 24 UTC
Wind 6 kt from the North
Visibility 10 km or more
no clouds below 1500 m and no cumulonimbus
Becoming
from 20 at 06 UTC to 20 at 09 UTC
Wind 12 kt from the East
Becoming
from 20 at 16 UTC to 20 at 18 UTC
Wind 5 kt from the North
Visibility: 4000 m
haze

TAF: FTTJ 191701Z 1918/2024 01006KT CAVOK BECMG 2006/2009 08012KT BECMG 2016/2018 36005KT 4000 HZ

Weather observations and forecasts of more than 4000 airports (METAR and TAF reports).

The available stations are represented by yellow and red dots on the map.

Hover mouse over dot to see the name of the station.

Then click to see weather observations and forecasts.

To change the map : click on the green buttons with a black cross to zoom in, on the green button with a dash to zoom out, or on the green arrows for adjacent maps.


METAR-TAF: